Time;durP1;ratioP1;P1;durP2;ratioP2;P2;SDS_P1;SDS_P2;PMS_P1;PMS_P2;Temp;Humidity;BMP_temperature;BMP_pressure;BME280_temperature;BME280_humidity;BME280_pressure;Samples;Min_cycle;Max_cycle;Signal;HPM_P1;HPM_P2
2022/01/14 00:24:13;;;;;;;26.05;15.00;;;2.40;99.90;;;;;;4964766;28;20239;-89
2022/01/14 00:32:47;;;;;;;24.58;14.38;;;2.70;99.90;;;;;;4980495;28;20206;-88
2022/01/14 00:38:22;;;;;;;27.58;14.95;;;2.40;99.90;;;;;;4978922;23;20376;-88
2022/01/14 00:40:51;;;;;;;23.85;14.63;;;2.70;99.90;;;;;;4981809;28;20238;-88
2022/01/14 00:43:18;;;;;;;29.92;15.38;;;2.80;99.90;;;;;;4982544;28;20221;-88
2022/01/14 00:45:45;;;;;;;25.38;13.85;;;3.00;99.90;;;;;;4982166;28;20209;-88
2022/01/14 00:48:13;;;;;;;27.65;16.30;;;3.00;99.90;;;;;;5007771;23;20216;-87
2022/01/14 00:50:44;;;;;;;25.60;14.70;;;2.30;99.90;;;;;;5003909;28;20231;-89
2022/01/14 00:53:11;;;;;;;24.88;16.20;;;3.00;99.90;;;;;;5004615;28;20208;-88
2022/01/14 00:55:48;;;;;;;29.38;17.13;;;3.00;99.90;;;;;;5004214;28;20232;-88
2022/01/14 01:01:00;;;;;;;29.23;14.93;;;2.80;99.90;;;;;;5001735;28;20219;-87
2022/01/14 01:03:28;;;;;;;29.55;15.55;;;2.70;99.90;;;;;;5001379;28;20251;-88
2022/01/14 01:05:55;;;;;;;26.45;15.05;;;2.50;99.90;;;;;;5011477;28;20218;-89
2022/01/14 01:08:25;;;;;;;26.00;15.25;;;3.00;99.90;;;;;;5014018;28;20290;-89
2022/01/14 01:10:52;;;;;;;25.73;14.60;;;2.90;99.90;;;;;;5003598;28;20229;-89
2022/01/14 01:13:24;;;;;;;21.98;14.25;;;2.60;99.90;;;;;;5010045;28;20261;-89
2022/01/14 01:15:53;;;;;;;25.55;15.18;;;2.70;99.90;;;;;;5016974;28;20272;-88
2022/01/14 01:18:21;;;;;;;21.00;13.55;;;2.90;99.90;;;;;;5014022;28;20228;-90
2022/01/14 01:20:48;;;;;;;23.30;14.45;;;2.30;99.90;;;;;;5005906;28;20685;-89
2022/01/14 01:23:16;;;;;;;30.55;15.68;;;2.90;99.90;;;;;;5004741;28;20224;-90
2022/01/14 01:25:47;;;;;;;27.67;14.02;;;2.30;99.90;;;;;;5002740;28;20235;-88
2022/01/14 01:28:15;;;;;;;25.55;15.10;;;2.50;99.90;;;;;;5007444;28;20256;-89
2022/01/14 01:31:04;;;;;;;23.05;15.30;;;2.30;99.90;;;;;;5010508;28;20206;-88
2022/01/14 01:33:32;;;;;;;25.83;14.50;;;2.00;99.90;;;;;;5009140;28;20223;-87
2022/01/14 01:36:01;;;;;;;25.73;15.18;;;2.40;99.90;;;;;;5011712;28;20219;-88
2022/01/14 01:38:28;;;;;;;26.10;16.27;;;1.90;99.90;;;;;;5006490;28;20226;-89
2022/01/14 01:40:55;;;;;;;26.52;14.60;;;2.40;99.90;;;;;;5006153;28;20229;-88
2022/01/14 01:43:25;;;;;;;23.17;14.85;;;2.30;99.90;;;;;;5007024;28;20224;-87
2022/01/14 01:45:55;;;;;;;25.02;16.35;;;2.80;99.90;;;;;;5005920;28;20185;-89
2022/01/14 01:48:24;;;;;;;23.17;14.68;;;2.40;99.90;;;;;;5005597;28;20657;-90
2022/01/14 01:50:51;;;;;;;28.02;16.20;;;2.30;99.90;;;;;;5005530;28;20252;-88
2022/01/14 01:53:18;;;;;;;23.70;15.55;;;2.30;99.90;;;;;;5006720;28;20638;-87
2022/01/14 01:55:45;;;;;;;25.40;16.08;;;2.50;99.90;;;;;;5004726;28;20240;-89
2022/01/14 01:58:12;;;;;;;26.23;14.57;;;2.10;99.90;;;;;;5014947;28;20239;-86
2022/01/14 02:00:40;;;;;;;25.00;14.10;;;2.30;99.90;;;;;;5007103;28;20274;-89
2022/01/14 02:03:08;;;;;;;31.58;14.93;;;2.40;99.90;;;;;;5010360;28;20235;-85
2022/01/14 02:05:36;;;;;;;28.27;15.57;;;2.60;99.90;;;;;;5015981;28;20587;-89
2022/01/14 02:08:02;;;;;;;20.95;13.20;;;2.50;99.90;;;;;;5018034;28;20235;-87
2022/01/14 02:10:29;;;;;;;24.08;15.48;;;2.40;99.90;;;;;;5020201;28;20227;-88
2022/01/14 02:12:56;;;;;;;21.92;15.35;;;2.20;99.90;;;;;;5016654;28;20221;-88
2022/01/14 02:15:44;;;;;;;24.02;14.38;;;2.20;99.90;;;;;;5011474;28;20237;-90
2022/01/14 02:23:47;;;;;;;23.92;14.60;;;2.20;99.90;;;;;;5020638;28;20172;-88
2022/01/14 02:26:14;;;;;;;24.42;15.77;;;2.20;99.90;;;;;;5008446;28;20196;-89
2022/01/14 02:28:42;;;;;;;23.25;15.02;;;2.10;99.90;;;;;;5006590;28;20316;-89
2022/01/14 02:31:10;;;;;;;23.55;14.23;;;1.80;99.90;;;;;;5005142;28;20271;-89
2022/01/14 02:33:37;;;;;;;24.70;15.45;;;1.90;99.90;;;;;;5005211;28;20214;-89
2022/01/14 02:36:06;;;;;;;23.38;14.50;;;1.50;99.90;;;;;;5006034;28;20271;-89
2022/01/14 02:38:33;;;;;;;24.30;15.40;;;2.00;99.90;;;;;;5005707;28;20254;-89
2022/01/14 02:41:01;;;;;;;25.60;15.52;;;1.80;99.90;;;;;;5013424;28;20211;-87
2022/01/14 02:43:28;;;;;;;25.75;14.88;;;2.00;99.90;;;;;;5019768;28;20204;-88
2022/01/14 02:45:57;;;;;;;23.77;14.77;;;2.00;99.90;;;;;;5013168;28;20216;-88
2022/01/14 02:48:26;;;;;;;27.10;15.15;;;2.10;99.90;;;;;;5019806;28;20247;-86
2022/01/14 02:50:57;;;;;;;24.45;15.93;;;2.10;99.90;;;;;;5018787;28;20176;-86
2022/01/14 02:53:30;;;;;;;22.95;15.13;;;2.00;99.90;;;;;;5013882;28;20205;-86
2022/01/14 02:55:59;;;;;;;27.58;15.77;;;2.10;99.90;;;;;;5003223;28;20200;-88
2022/01/14 02:58:29;;;;;;;26.92;16.85;;;2.10;99.90;;;;;;5003292;28;20235;-88
2022/01/14 03:00:59;;;;;;;29.35;16.58;;;1.70;99.90;;;;;;5004703;28;20216;-89
2022/01/14 03:03:26;;;;;;;24.38;16.17;;;1.90;99.90;;;;;;5009240;28;20238;-88
2022/01/14 03:05:53;;;;;;;27.33;16.10;;;2.20;99.90;;;;;;5013593;28;20262;-88
2022/01/14 03:08:22;;;;;;;24.50;16.88;;;2.30;99.90;;;;;;5005267;28;20723;-87
2022/01/14 03:10:54;;;;;;;23.48;15.95;;;2.20;99.90;;;;;;5003854;28;20254;-88
2022/01/14 03:13:23;;;;;;;24.27;16.40;;;2.00;99.90;;;;;;5004107;28;20231;-89
2022/01/14 03:15:50;;;;;;;24.50;15.25;;;2.10;99.90;;;;;;5004168;28;20196;-89
2022/01/14 03:18:23;;;;;;;25.83;16.38;;;2.40;99.90;;;;;;5003623;28;20224;-87
2022/01/14 03:20:58;;;;;;;25.77;17.48;;;2.10;99.90;;;;;;5003200;28;20212;-89
2022/01/14 03:23:26;;;;;;;24.90;15.82;;;1.90;99.90;;;;;;5004968;28;20211;-88
2022/01/14 03:25:55;;;;;;;27.65;16.83;;;2.40;99.90;;;;;;5013809;28;20239;-89
2022/01/14 03:28:24;;;;;;;20.33;14.38;;;2.40;99.90;;;;;;5004883;28;20239;-87
2022/01/14 03:30:52;;;;;;;25.30;14.75;;;2.60;99.90;;;;;;5004083;28;20224;-88
2022/01/14 03:33:20;;;;;;;26.67;16.13;;;2.10;99.90;;;;;;5012312;28;20211;-89
2022/01/14 03:35:48;;;;;;;20.23;14.48;;;2.40;99.90;;;;;;5010198;28;20234;-88
2022/01/14 03:38:15;;;;;;;25.70;15.40;;;1.80;99.90;;;;;;5005733;28;20701;-87
2022/01/14 03:40:42;;;;;;;23.40;16.00;;;2.20;99.90;;;;;;5010279;28;20247;-89
2022/01/14 03:43:11;;;;;;;27.77;17.35;;;2.40;99.90;;;;;;5003985;28;20251;-89
2022/01/14 03:45:39;;;;;;;29.25;17.15;;;2.30;99.90;;;;;;5006084;28;20216;-87
2022/01/14 03:48:06;;;;;;;26.60;15.50;;;2.10;99.90;;;;;;5008819;28;20212;-87
2022/01/14 03:50:33;;;;;;;24.15;15.77;;;1.80;99.90;;;;;;5006039;28;20239;-89
2022/01/14 03:53:01;;;;;;;24.20;15.85;;;1.70;99.90;;;;;;5003149;28;20216;-88
2022/01/14 03:55:28;;;;;;;27.35;15.40;;;2.20;99.90;;;;;;5002089;28;20207;-89
2022/01/14 03:57:55;;;;;;;28.15;16.48;;;2.30;99.90;;;;;;5002228;28;20272;-89
2022/01/14 04:00:24;;;;;;;26.85;15.65;;;2.20;99.90;;;;;;5002814;28;20209;-88
2022/01/14 04:02:51;;;;;;;24.73;15.30;;;2.20;99.90;;;;;;5006010;28;20220;-87
2022/01/14 04:05:18;;;;;;;27.65;15.73;;;2.10;99.90;;;;;;5014813;28;20203;-89
2022/01/14 04:07:45;;;;;;;27.85;17.80;;;2.00;99.90;;;;;;5003293;28;20697;-88
2022/01/14 04:10:13;;;;;;;26.25;15.27;;;2.10;99.90;;;;;;5002575;28;20251;-88
2022/01/14 04:12:51;;;;;;;25.38;14.68;;;2.30;99.90;;;;;;5001628;28;20204;-88
2022/01/14 04:15:38;;;;;;;25.30;15.27;;;2.30;99.90;;;;;;5003713;28;20254;-89
2022/01/14 04:18:07;;;;;;;23.83;14.32;;;2.10;99.90;;;;;;5001988;28;20264;-88
2022/01/14 04:20:36;;;;;;;26.08;15.68;;;2.60;99.90;;;;;;5001521;28;20261;-88
2022/01/14 04:23:04;;;;;;;26.80;15.60;;;2.20;99.90;;;;;;5001402;28;20220;-89
2022/01/14 04:25:31;;;;;;;24.35;14.35;;;2.10;99.90;;;;;;5002263;28;20215;-90
2022/01/14 04:27:58;;;;;;;23.60;14.63;;;2.00;99.90;;;;;;5011436;28;20276;-87
2022/01/14 04:30:26;;;;;;;26.67;15.18;;;2.20;99.90;;;;;;5006726;28;20262;-88
2022/01/14 04:32:53;;;;;;;27.27;15.15;;;2.00;99.90;;;;;;5001749;28;20645;-88
2022/01/14 04:35:21;;;;;;;26.88;16.85;;;1.90;99.90;;;;;;5003163;28;20669;-89
2022/01/14 04:37:48;;;;;;;28.45;16.48;;;2.10;99.90;;;;;;5011224;28;20212;-88
2022/01/14 04:40:15;;;;;;;25.92;16.05;;;2.20;99.90;;;;;;5004688;28;20273;-88
2022/01/14 04:42:43;;;;;;;28.25;15.00;;;2.30;99.90;;;;;;5002149;28;20287;-89
2022/01/14 04:45:14;;;;;;;21.95;15.00;;;2.00;99.90;;;;;;5001959;28;20627;-89
2022/01/14 04:47:45;;;;;;;26.13;16.13;;;2.20;99.90;;;;;;5002013;28;20624;-88
2022/01/14 04:50:14;;;;;;;28.10;16.33;;;2.20;99.90;;;;;;5002502;28;20313;-89
2022/01/14 04:52:44;;;;;;;25.17;16.05;;;2.20;99.90;;;;;;5010242;28;20208;-88
2022/01/14 04:55:13;;;;;;;26.27;16.30;;;2.10;99.90;;;;;;5005677;28;20204;-89
2022/01/14 04:57:40;;;;;;;25.92;15.40;;;2.10;99.90;;;;;;5001272;28;20207;-88
2022/01/14 05:00:10;;;;;;;26.08;17.20;;;1.60;99.90;;;;;;5000661;28;20374;-87
2022/01/14 05:02:37;;;;;;;25.90;17.30;;;2.00;99.90;;;;;;5005881;28;20354;-88
2022/01/14 05:05:05;;;;;;;28.85;17.90;;;1.70;99.90;;;;;;5010854;28;20204;-88
2022/01/14 05:07:32;;;;;;;24.90;15.75;;;2.00;99.90;;;;;;5011048;28;20212;-89
2022/01/14 05:10:17;;;;;;;25.40;16.50;;;1.50;99.90;;;;;;5002385;28;20239;-88
2022/01/14 05:12:45;;;;;;;27.58;16.75;;;2.00;99.90;;;;;;5002335;28;20230;-89
2022/01/14 05:15:14;;;;;;;24.77;16.13;;;2.00;99.90;;;;;;5011245;28;20689;-88
2022/01/14 05:17:41;;;;;;;22.83;14.50;;;1.80;99.90;;;;;;5017344;28;20199;-88
2022/01/14 05:20:09;;;;;;;24.42;14.43;;;1.80;99.90;;;;;;5007877;28;20235;-89
2022/01/14 05:22:36;;;;;;;29.48;16.08;;;2.00;99.90;;;;;;5009058;28;20251;-89
2022/01/14 05:25:06;;;;;;;26.58;15.45;;;2.00;99.90;;;;;;5007855;28;20204;-87
2022/01/14 05:27:33;;;;;;;28.05;14.25;;;2.40;99.90;;;;;;5007581;28;20192;-86
2022/01/14 05:30:00;;;;;;;21.33;14.20;;;2.20;99.90;;;;;;5009559;28;20251;-87
2022/01/14 05:32:28;;;;;;;22.05;13.07;;;2.10;99.90;;;;;;5021374;28;20209;-87
2022/01/14 05:34:55;;;;;;;25.92;15.70;;;2.10;99.90;;;;;;5017275;28;20613;-89
2022/01/14 05:37:22;;;;;;;22.17;14.02;;;2.00;99.90;;;;;;5015281;28;20192;-88
2022/01/14 05:39:49;;;;;;;24.02;14.68;;;1.80;99.90;;;;;;5018609;28;20229;-89
2022/01/14 05:42:17;;;;;;;21.63;14.10;;;1.40;99.90;;;;;;5006064;28;20243;-88
2022/01/14 05:44:44;;;;;;;24.65;14.20;;;1.40;99.90;;;;;;5006983;28;20263;-89
2022/01/14 05:47:11;;;;;;;23.60;14.55;;;1.90;99.90;;;;;;5010125;28;20649;-89
2022/01/14 05:49:38;;;;;;;22.88;14.48;;;2.40;99.90;;;;;;5011976;28;20259;-88
2022/01/14 05:52:06;;;;;;;22.40;13.57;;;1.90;99.90;;;;;;5016511;28;20243;-90
2022/01/14 05:54:33;;;;;;;20.83;13.05;;;2.00;99.90;;;;;;5008718;28;20313;-89
2022/01/14 05:57:00;;;;;;;21.35;14.45;;;2.00;99.90;;;;;;5018042;28;20184;-90
2022/01/14 05:59:28;;;;;;;22.45;14.30;;;1.80;99.90;;;;;;5016792;28;20216;-90
2022/01/14 06:01:55;;;;;;;25.08;15.77;;;1.90;99.90;;;;;;5007336;28;20231;-90
2022/01/14 06:04:22;;;;;;;20.77;13.93;;;1.60;99.90;;;;;;5006748;28;20267;-90
2022/01/14 06:06:49;;;;;;;22.20;14.80;;;1.90;99.90;;;;;;5005828;28;20721;-89
2022/01/14 06:09:16;;;;;;;23.17;15.20;;;1.90;99.90;;;;;;5005650;28;20263;-89
2022/01/14 06:11:43;;;;;;;23.58;15.10;;;1.90;99.90;;;;;;5005138;28;20224;-89
2022/01/14 06:14:12;;;;;;;20.67;13.40;;;2.00;99.90;;;;;;5004841;28;20232;-89
2022/01/14 06:16:41;;;;;;;23.80;14.27;;;1.70;99.90;;;;;;5010760;28;20292;-89
2022/01/14 06:19:08;;;;;;;18.83;13.05;;;1.90;99.90;;;;;;5007850;28;20705;-89
2022/01/14 06:21:35;;;;;;;23.90;14.98;;;1.40;99.90;;;;;;5008142;28;20228;-88
2022/01/14 06:24:02;;;;;;;22.60;14.35;;;1.90;99.90;;;;;;5017109;28;20208;-89
2022/01/14 06:26:29;;;;;;;22.85;13.65;;;1.70;99.90;;;;;;5009718;28;20200;-89
2022/01/14 06:28:57;;;;;;;20.45;13.30;;;1.30;99.90;;;;;;5007033;28;20252;-91
2022/01/14 06:31:24;;;;;;;24.70;14.20;;;1.60;99.90;;;;;;5007004;28;20207;-89
2022/01/14 06:33:52;;;;;;;22.02;14.13;;;1.60;99.90;;;;;;5012241;28;20223;-88
2022/01/14 06:36:19;;;;;;;27.60;14.93;;;1.20;99.90;;;;;;5012611;28;20673;-89
2022/01/14 06:38:46;;;;;;;26.55;14.90;;;1.50;99.90;;;;;;5005985;28;20263;-89
2022/01/14 06:41:16;;;;;;;31.33;14.60;;;1.70;99.90;;;;;;5092350;23;20239;-88
2022/01/14 06:43:49;;;;;;;22.38;13.70;;;1.50;99.90;;;;;;4982642;28;20232;-89
2022/01/14 06:46:28;;;;;;;24.83;15.40;;;1.70;99.90;;;;;;4982350;28;20645;-88
2022/01/14 06:49:08;;;;;;;23.40;14.10;;;1.60;99.90;;;;;;4986978;28;20220;-89
2022/01/14 06:51:40;;;;;;;23.20;14.55;;;1.30;99.90;;;;;;4996772;28;20260;-88
2022/01/14 06:54:12;;;;;;;21.30;15.05;;;1.60;99.90;;;;;;4998712;28;20207;-87
2022/01/14 06:56:39;;;;;;;19.08;12.73;;;1.60;99.90;;;;;;4988585;28;20193;-88
2022/01/14 06:59:09;;;;;;;20.52;14.20;;;1.50;99.90;;;;;;4983663;28;20229;-88
2022/01/14 07:01:37;;;;;;;25.40;15.40;;;1.50;99.90;;;;;;4986196;28;20615;-87
2022/01/14 07:04:11;;;;;;;20.40;13.10;;;1.40;99.90;;;;;;4979253;28;20701;-88
2022/01/14 07:06:42;;;;;;;21.05;13.95;;;1.90;99.90;;;;;;4979539;28;20319;-88
2022/01/14 07:09:16;;;;;;;25.00;14.55;;;1.30;99.90;;;;;;4979391;28;20216;-87
2022/01/14 07:11:52;;;;;;;21.58;13.50;;;1.90;99.90;;;;;;4979623;28;20306;-89
2022/01/14 07:14:25;;;;;;;20.75;13.85;;;1.70;99.90;;;;;;4980143;28;20254;-89
2022/01/14 07:17:03;;;;;;;21.02;13.13;;;1.40;99.90;;;;;;4984200;28;20229;-89
2022/01/14 07:20:05;;;;;;;21.00;13.75;;;1.90;99.90;;;;;;4997514;28;20217;-88
2022/01/14 07:26:04;;;;;;;20.35;12.10;;;2.30;99.90;;;;;;4980147;28;20248;-90
2022/01/14 07:32:14;;;;;;;17.52;11.57;;;1.90;99.90;;;;;;4973307;28;20288;-88
2022/01/14 07:35:39;;;;;;;;;;;;;;;;;;;;;
2022/01/14 07:42:07;;;;;;;22.23;14.57;;;1.90;99.90;;;;;;4933687;29;20913;-90
2022/01/14 09:04:57;;;;;;;29.67;16.83;;;2.40;99.90;;;;;;4943699;29;20226;-88
2022/01/14 10:59:03;;;;;;;25.98;16.83;;;5.60;99.90;;;;;;4932874;29;20277;-91
2022/01/14 11:02:20;;;;;;;;;;;;;;;;;;;;;
2022/01/14 11:18:42;;;;;;;25.33;16.60;;;5.60;99.90;;;;;;4985087;28;20203;-90
2022/01/14 11:24:52;;;;;;;;;;;;;;;;;;;;;
2022/01/14 11:27:30;;;;;;;26.55;17.05;;;5.80;99.90;;;;;;4982498;28;20192;-88
2022/01/14 11:30:49;;;;;;;25.60;17.73;;;5.80;99.90;;;;;;4982739;28;20410;-89
2022/01/14 12:11:43;;;;;;;26.65;19.38;;;6.60;99.90;;;;;;4994169;28;20242;-89
2022/01/14 13:47:25;;;;;;;26.38;19.10;;;8.10;99.90;;;;;;4685629;26;20233;-88
2022/01/14 13:50:12;;;;;;;25.25;18.05;;;8.20;99.90;;;;;;4953194;29;20205;-89
2022/01/14 13:52:58;;;;;;;26.75;18.27;;;8.30;99.90;;;;;;4953417;29;20236;-89
2022/01/14 13:58:37;;;;;;;27.17;18.30;;;8.50;99.90;;;;;;4952178;29;20218;-88
2022/01/14 14:01:06;;;;;;;30.67;19.48;;;8.60;99.90;;;;;;4950989;29;20233;-88
2022/01/14 14:03:45;;;;;;;27.63;18.43;;;8.60;99.90;;;;;;4951566;29;20257;-88
2022/01/14 14:06:21;;;;;;;26.65;19.17;;;8.60;99.90;;;;;;4957746;29;20453;-89
2022/01/14 14:08:56;;;;;;;25.40;19.05;;;8.60;99.90;;;;;;4955018;29;20277;-88
2022/01/14 14:12:03;;;;;;;26.70;20.30;;;8.60;99.90;;;;;;4953096;29;20269;-89
2022/01/14 14:17:18;;;;;;;31.13;18.17;;;8.60;99.90;;;;;;4952252;29;20189;-89
2022/01/14 14:19:50;;;;;;;32.50;20.25;;;8.70;99.90;;;;;;4952125;29;20296;-89
2022/01/14 14:22:42;;;;;;;30.98;20.48;;;8.80;99.90;;;;;;4959586;29;20316;-88
2022/01/14 14:25:16;;;;;;;33.38;20.75;;;8.70;99.90;;;;;;4938267;29;20296;-88
2022/01/14 14:28:00;;;;;;;24.85;18.60;;;8.60;99.90;;;;;;4955565;29;20317;-88
2022/01/14 14:30:32;;;;;;;23.45;17.38;;;8.70;99.90;;;;;;4960009;29;20273;-90
2022/01/14 14:32:59;;;;;;;30.00;18.20;;;8.70;99.90;;;;;;4961428;29;20250;-88
2022/01/14 14:35:40;;;;;;;31.45;23.05;;;8.70;99.90;;;;;;4957604;29;20210;-90
2022/01/14 14:38:14;;;;;;;31.42;21.90;;;8.70;99.90;;;;;;4958794;29;20225;-90
2022/01/14 14:40:42;;;;;;;29.58;21.65;;;8.60;99.90;;;;;;4959724;29;20202;-89
2022/01/14 14:43:17;;;;;;;29.13;20.42;;;8.70;99.90;;;;;;4958348;29;20214;-90
2022/01/14 14:45:44;;;;;;;31.50;21.52;;;8.70;99.90;;;;;;4952628;29;20325;-88
2022/01/14 14:48:12;;;;;;;32.45;20.17;;;8.70;99.90;;;;;;4960555;29;20198;-90
2022/01/14 14:50:41;;;;;;;30.25;20.65;;;8.70;99.90;;;;;;4952875;29;20221;-90
2022/01/14 14:53:10;;;;;;;26.90;19.42;;;8.80;99.90;;;;;;4952128;29;20213;-88
2022/01/14 14:55:38;;;;;;;28.30;20.08;;;8.70;99.90;;;;;;4951075;29;20206;-89
2022/01/14 14:58:05;;;;;;;29.77;20.40;;;8.70;99.90;;;;;;4952181;29;20647;-90
2022/01/14 15:00:32;;;;;;;30.45;19.67;;;8.60;99.90;;;;;;4957837;29;20273;-89
2022/01/14 15:03:01;;;;;;;32.80;20.83;;;8.70;99.90;;;;;;4949661;29;20244;-88
2022/01/14 15:05:28;;;;;;;29.40;20.10;;;8.60;99.90;;;;;;4949644;29;20667;-89
2022/01/14 15:07:57;;;;;;;25.17;19.35;;;8.60;99.90;;;;;;4948473;29;20304;-88
2022/01/14 15:10:26;;;;;;;30.23;19.45;;;8.60;99.90;;;;;;4949487;29;20210;-89
2022/01/14 15:12:53;;;;;;;31.13;21.20;;;8.60;99.90;;;;;;4950409;29;20327;-89
2022/01/14 15:15:33;;;;;;;39.90;20.30;;;8.50;99.90;;;;;;4949581;29;20261;-89
2022/01/14 15:18:12;;;;;;;30.27;20.40;;;8.40;99.90;;;;;;4949862;29;20557;-89
2022/01/14 15:20:41;;;;;;;46.42;26.02;;;8.40;99.90;;;;;;4955706;29;20268;-88
2022/01/14 15:23:11;;;;;;;50.73;29.30;;;8.30;99.90;;;;;;4951374;29;20237;-86
2022/01/14 15:25:40;;;;;;;38.08;24.83;;;8.30;99.90;;;;;;4949441;29;20462;-88
2022/01/14 15:28:08;;;;;;;35.22;24.10;;;8.20;99.90;;;;;;4948685;29;20329;-89
2022/01/14 15:30:36;;;;;;;30.98;22.02;;;8.20;99.90;;;;;;4949598;29;20747;-89
2022/01/14 15:33:03;;;;;;;27.67;20.35;;;8.10;99.90;;;;;;4948155;29;20275;-89
2022/01/14 15:35:31;;;;;;;29.92;20.63;;;8.10;99.90;;;;;;4946471;29;20248;-89
2022/01/14 15:38:02;;;;;;;30.75;19.70;;;8.00;99.90;;;;;;4947862;29;20289;-89
2022/01/14 15:40:40;;;;;;;30.83;19.58;;;7.90;99.90;;;;;;4947775;29;20232;-88
2022/01/14 15:43:09;;;;;;;29.38;19.25;;;7.90;99.90;;;;;;4947581;29;20213;-90
2022/01/14 15:45:38;;;;;;;29.63;18.15;;;7.80;99.90;;;;;;4947995;29;20261;-88
2022/01/14 15:48:06;;;;;;;26.08;18.80;;;7.80;99.90;;;;;;4948307;29;20210;-89
2022/01/14 15:50:34;;;;;;;35.35;20.90;;;7.70;99.90;;;;;;4950928;29;20221;-88
2022/01/14 15:53:06;;;;;;;29.85;19.65;;;7.70;99.90;;;;;;4955177;29;20600;-89
2022/01/14 15:55:35;;;;;;;30.30;19.55;;;7.70;99.90;;;;;;4953390;29;20217;-88
2022/01/14 15:58:02;;;;;;;26.30;20.00;;;7.50;99.90;;;;;;4950509;29;20264;-88
2022/01/14 16:00:29;;;;;;;27.73;20.13;;;7.40;99.90;;;;;;4951042;29;20243;-90
2022/01/14 16:02:56;;;;;;;26.80;20.50;;;6.90;99.90;;;;;;4949613;29;20287;-89
2022/01/14 16:05:23;;;;;;;28.88;21.33;;;7.20;99.90;;;;;;4948072;29;20233;-89
2022/01/14 16:07:51;;;;;;;34.00;20.73;;;7.20;99.90;;;;;;4949950;29;20273;-88
2022/01/14 16:10:18;;;;;;;27.20;19.67;;;7.20;99.90;;;;;;4952912;29;20276;-88
2022/01/14 16:12:50;;;;;;;26.48;19.73;;;6.70;99.90;;;;;;4953054;29;20236;-89
2022/01/14 16:15:19;;;;;;;31.88;21.88;;;7.00;99.90;;;;;;4950283;29;20213;-90
2022/01/14 16:17:46;;;;;;;31.73;22.17;;;6.80;99.90;;;;;;4947470;29;20284;-89
2022/01/14 16:20:16;;;;;;;34.65;20.02;;;6.80;99.90;;;;;;4947750;29;20213;-89
2022/01/14 16:22:44;;;;;;;28.05;20.02;;;6.30;99.90;;;;;;4949308;29;20241;-89
2022/01/14 16:25:12;;;;;;;33.85;21.42;;;6.70;99.90;;;;;;4951425;29;20235;-89
2022/01/14 16:27:40;;;;;;;32.97;21.05;;;6.70;99.90;;;;;;4948088;29;20639;-89
2022/01/14 16:30:10;;;;;;;32.80;22.08;;;6.80;99.90;;;;;;4947734;29;20577;-88
2022/01/14 16:32:41;;;;;;;28.02;20.77;;;6.70;99.90;;;;;;4949500;29;20220;-90
2022/01/14 16:35:10;;;;;;;30.08;21.95;;;6.70;99.90;;;;;;4958600;29;20245;-89
2022/01/14 16:37:38;;;;;;;32.55;21.85;;;6.70;99.90;;;;;;4948491;29;20235;-87
2022/01/14 16:40:08;;;;;;;34.17;23.38;;;6.70;99.90;;;;;;4948956;29;20211;-87
2022/01/14 16:42:36;;;;;;;32.88;20.80;;;6.80;99.90;;;;;;4949816;29;20228;-89
2022/01/14 16:45:08;;;;;;;30.85;21.13;;;6.60;99.90;;;;;;4954494;29;20237;-89
2022/01/14 16:47:40;;;;;;;31.95;22.85;;;6.70;99.90;;;;;;4950078;29;20276;-89
2022/01/14 16:50:09;;;;;;;30.92;22.10;;;6.60;99.90;;;;;;4949291;29;20205;-89
2022/01/14 16:52:36;;;;;;;30.20;20.80;;;6.40;99.90;;;;;;4947812;29;20230;-89
2022/01/14 16:55:04;;;;;;;38.40;23.55;;;6.40;99.90;;;;;;4949094;29;20220;-89
2022/01/14 16:57:31;;;;;;;34.42;22.35;;;6.40;99.90;;;;;;4948500;29;20228;-88
2022/01/14 16:59:58;;;;;;;26.15;18.60;;;6.20;99.90;;;;;;4947401;29;20213;-90
2022/01/14 17:02:25;;;;;;;28.38;20.85;;;6.10;99.90;;;;;;4947479;29;20232;-89
2022/01/14 17:04:54;;;;;;;26.13;18.80;;;6.00;99.90;;;;;;4947410;29;20303;-90
2022/01/14 17:07:21;;;;;;;33.90;19.50;;;5.70;99.90;;;;;;4946865;29;20245;-88
2022/01/14 17:09:48;;;;;;;28.25;19.65;;;5.90;99.90;;;;;;4948108;29;20630;-89
2022/01/14 17:12:15;;;;;;;26.45;18.77;;;5.90;99.90;;;;;;4950817;29;20300;-87
2022/01/14 17:14:42;;;;;;;29.50;19.20;;;5.90;99.90;;;;;;4950322;29;20207;-88
2022/01/14 17:17:10;;;;;;;30.45;20.33;;;5.90;99.90;;;;;;4949487;29;20243;-89
2022/01/14 17:19:37;;;;;;;31.90;19.25;;;5.90;99.90;;;;;;4951230;29;20240;-88
2022/01/14 17:22:07;;;;;;;29.50;19.35;;;5.90;99.90;;;;;;4950067;29;20256;-88
2022/01/14 17:24:35;;;;;;;33.65;20.95;;;5.90;99.90;;;;;;4949839;29;20255;-89
2022/01/14 17:27:03;;;;;;;28.88;19.27;;;5.90;99.90;;;;;;4950825;29;20282;-89
2022/01/14 17:29:30;;;;;;;32.03;19.25;;;5.80;99.90;;;;;;4951526;29;20276;-87
2022/01/14 17:31:57;;;;;;;29.52;20.85;;;5.70;99.90;;;;;;4957973;29;20299;-89
2022/01/14 17:34:25;;;;;;;32.80;21.00;;;5.60;99.90;;;;;;4961175;29;20217;-90
2022/01/14 17:36:54;;;;;;;31.13;20.95;;;5.40;99.90;;;;;;4952812;29;20206;-88
2022/01/14 17:43:06;;;;;;;33.25;20.90;;;5.20;99.90;;;;;;4945839;23;20257;-89
2022/01/14 17:45:33;;;;;;;27.13;19.35;;;5.40;99.90;;;;;;4997706;28;20225;-88
2022/01/14 17:48:01;;;;;;;24.80;19.10;;;5.30;99.90;;;;;;5000966;28;20202;-88
2022/01/14 17:50:30;;;;;;;28.52;18.75;;;5.40;99.90;;;;;;5000629;28;20195;-90
2022/01/14 17:53:00;;;;;;;25.85;18.95;;;5.30;99.90;;;;;;5000942;28;20221;-89
2022/01/14 17:55:41;;;;;;;32.30;20.40;;;5.20;99.90;;;;;;4997900;28;20182;-88
2022/01/14 17:58:10;;;;;;;34.00;20.25;;;4.90;99.90;;;;;;4991686;28;20538;-90
2022/01/14 18:00:37;;;;;;;29.92;20.25;;;4.80;99.90;;;;;;4998084;28;20202;-86
2022/01/14 18:03:09;;;;;;;24.80;18.50;;;5.00;99.90;;;;;;4999817;28;20214;-88
2022/01/14 18:05:36;;;;;;;28.73;19.20;;;5.00;99.90;;;;;;4999487;28;20219;-89
2022/01/14 18:08:07;;;;;;;31.15;18.38;;;4.80;99.90;;;;;;4991255;28;20216;-89
2022/01/14 18:10:53;;;;;;;32.50;20.13;;;5.10;99.90;;;;;;4988887;28;20221;-88
2022/01/14 18:13:26;;;;;;;28.52;18.92;;;4.50;99.90;;;;;;4987757;28;20257;-88
2022/01/14 18:15:54;;;;;;;26.77;18.02;;;4.80;99.90;;;;;;4986049;28;20189;-89
2022/01/14 18:18:21;;;;;;;25.77;16.63;;;4.80;99.90;;;;;;4984939;28;20685;-87
2022/01/14 18:20:49;;;;;;;26.67;18.35;;;4.80;99.90;;;;;;4984291;28;20197;-86
2022/01/14 18:23:16;;;;;;;29.98;19.60;;;4.90;99.90;;;;;;4984919;28;20202;-88
2022/01/14 18:25:45;;;;;;;32.20;19.48;;;4.60;99.90;;;;;;4986288;28;20311;-89
2022/01/14 18:28:12;;;;;;;30.38;18.35;;;4.80;99.90;;;;;;4995163;28;20181;-87
2022/01/14 18:30:41;;;;;;;23.40;16.73;;;4.70;99.90;;;;;;4989655;28;20209;-90
2022/01/14 18:33:08;;;;;;;24.55;17.85;;;4.70;99.90;;;;;;4985731;28;20214;-88
2022/01/14 18:35:36;;;;;;;25.50;17.20;;;4.60;99.90;;;;;;4987144;28;20278;-88
2022/01/14 18:38:25;;;;;;;29.55;19.00;;;4.70;99.90;;;;;;4988607;28;20216;-91
